sensor_id;sensor_type;location;lat;lon;timestamp;P1;durP1;ratioP1;P2;durP2;ratioP2
13520;SDS011;6832;51.186;3.236;2023-05-17T00:00:52;32.57;;;6.13;;
13520;SDS011;6832;51.186;3.236;2023-05-17T00:03:21;37.03;;;6.63;;
13520;SDS011;6832;51.186;3.236;2023-05-17T00:05:48;24.57;;;5.40;;
13520;SDS011;6832;51.186;3.236;2023-05-17T00:08:15;24.13;;;5.67;;
13520;SDS011;6832;51.186;3.236;2023-05-17T00:10:42;32.53;;;5.70;;
13520;SDS011;6832;51.186;3.236;2023-05-17T00:13:09;36.37;;;6.13;;
13520;SDS011;6832;51.186;3.236;2023-05-17T00:15:36;29.43;;;6.10;;
13520;SDS011;6832;51.186;3.236;2023-05-17T00:18:03;32.30;;;5.93;;
13520;SDS011;6832;51.186;3.236;2023-05-17T00:20:32;16.73;;;4.90;;
13520;SDS011;6832;51.186;3.236;2023-05-17T00:23:09;22.30;;;5.10;;
13520;SDS011;6832;51.186;3.236;2023-05-17T00:25:38;28.40;;;5.60;;
13520;SDS011;6832;51.186;3.236;2023-05-17T00:28:05;15.40;;;5.23;;
13520;SDS011;6832;51.186;3.236;2023-05-17T00:30:32;30.13;;;6.10;;
13520;SDS011;6832;51.186;3.236;2023-05-17T00:33:00;26.27;;;5.70;;
13520;SDS011;6832;51.186;3.236;2023-05-17T00:35:28;25.13;;;5.27;;
13520;SDS011;6832;51.186;3.236;2023-05-17T00:38:02;17.13;;;5.00;;
13520;SDS011;6832;51.186;3.236;2023-05-17T00:40:30;34.30;;;6.53;;
13520;SDS011;6832;51.186;3.236;2023-05-17T00:43:00;37.23;;;6.63;;
13520;SDS011;6832;51.186;3.236;2023-05-17T00:45:28;35.53;;;6.77;;
13520;SDS011;6832;51.186;3.236;2023-05-17T00:47:56;32.97;;;6.03;;
13520;SDS011;6832;51.186;3.236;2023-05-17T00:50:23;24.87;;;5.43;;
13520;SDS011;6832;51.186;3.236;2023-05-17T00:52:53;23.63;;;5.20;;
13520;SDS011;6832;51.186;3.236;2023-05-17T00:55:25;26.57;;;5.67;;
13520;SDS011;6832;51.186;3.236;2023-05-17T00:57:52;21.03;;;5.13;;
13520;SDS011;6832;51.186;3.236;2023-05-17T01:00:24;25.10;;;5.83;;
13520;SDS011;6832;51.186;3.236;2023-05-17T01:02:52;20.57;;;5.30;;
13520;SDS011;6832;51.186;3.236;2023-05-17T01:05:19;28.67;;;5.57;;
13520;SDS011;6832;51.186;3.236;2023-05-17T01:07:46;18.07;;;4.90;;
13520;SDS011;6832;51.186;3.236;2023-05-17T01:10:12;26.73;;;5.67;;
13520;SDS011;6832;51.186;3.236;2023-05-17T01:12:45;13.53;;;4.57;;
13520;SDS011;6832;51.186;3.236;2023-05-17T01:15:21;22.13;;;5.63;;
13520;SDS011;6832;51.186;3.236;2023-05-17T01:17:53;25.80;;;5.53;;
13520;SDS011;6832;51.186;3.236;2023-05-17T01:20:27;39.33;;;6.93;;
13520;SDS011;6832;51.186;3.236;2023-05-17T01:23:00;38.00;;;6.60;;
13520;SDS011;6832;51.186;3.236;2023-05-17T01:25:41;19.73;;;5.20;;
13520;SDS011;6832;51.186;3.236;2023-05-17T01:28:20;22.67;;;5.07;;
13520;SDS011;6832;51.186;3.236;2023-05-17T01:30:50;37.40;;;6.57;;
13520;SDS011;6832;51.186;3.236;2023-05-17T01:33:20;20.33;;;5.50;;
13520;SDS011;6832;51.186;3.236;2023-05-17T01:35:48;20.93;;;5.10;;
13520;SDS011;6832;51.186;3.236;2023-05-17T01:38:15;16.00;;;5.27;;
13520;SDS011;6832;51.186;3.236;2023-05-17T01:40:44;18.17;;;4.90;;
13520;SDS011;6832;51.186;3.236;2023-05-17T01:43:20;16.40;;;4.77;;
13520;SDS011;6832;51.186;3.236;2023-05-17T01:45:52;18.77;;;4.80;;
13520;SDS011;6832;51.186;3.236;2023-05-17T01:48:27;14.87;;;5.30;;
13520;SDS011;6832;51.186;3.236;2023-05-17T01:51:01;24.90;;;5.73;;
13520;SDS011;6832;51.186;3.236;2023-05-17T01:53:29;19.93;;;5.20;;
13520;SDS011;6832;51.186;3.236;2023-05-17T01:56:03;24.23;;;5.50;;
13520;SDS011;6832;51.186;3.236;2023-05-17T01:58:38;22.43;;;5.17;;
13520;SDS011;6832;51.186;3.236;2023-05-17T02:01:11;26.70;;;5.73;;
13520;SDS011;6832;51.186;3.236;2023-05-17T02:03:44;17.07;;;5.10;;
13520;SDS011;6832;51.186;3.236;2023-05-17T02:06:13;27.63;;;6.10;;
13520;SDS011;6832;51.186;3.236;2023-05-17T02:08:41;17.47;;;5.17;;
13520;SDS011;6832;51.186;3.236;2023-05-17T02:11:08;21.67;;;5.50;;
13520;SDS011;6832;51.186;3.236;2023-05-17T02:13:38;19.90;;;5.57;;
13520;SDS011;6832;51.186;3.236;2023-05-17T02:18:40;19.93;;;5.50;;
13520;SDS011;6832;51.186;3.236;2023-05-17T02:21:10;23.20;;;5.17;;
13520;SDS011;6832;51.186;3.236;2023-05-17T02:23:39;23.70;;;5.67;;
13520;SDS011;6832;51.186;3.236;2023-05-17T02:26:06;25.77;;;5.93;;
13520;SDS011;6832;51.186;3.236;2023-05-17T02:28:33;17.30;;;5.00;;
13520;SDS011;6832;51.186;3.236;2023-05-17T02:31:02;21.90;;;5.30;;
13520;SDS011;6832;51.186;3.236;2023-05-17T02:33:30;22.57;;;5.50;;
13520;SDS011;6832;51.186;3.236;2023-05-17T02:35:58;23.50;;;5.63;;
13520;SDS011;6832;51.186;3.236;2023-05-17T02:38:25;26.50;;;5.77;;
13520;SDS011;6832;51.186;3.236;2023-05-17T02:40:52;21.77;;;5.53;;
13520;SDS011;6832;51.186;3.236;2023-05-17T02:43:25;20.07;;;5.80;;
13520;SDS011;6832;51.186;3.236;2023-05-17T02:45:52;20.97;;;5.20;;
13520;SDS011;6832;51.186;3.236;2023-05-17T02:48:25;20.10;;;4.90;;
13520;SDS011;6832;51.186;3.236;2023-05-17T02:50:51;21.63;;;5.47;;
13520;SDS011;6832;51.186;3.236;2023-05-17T02:53:19;19.87;;;5.20;;
13520;SDS011;6832;51.186;3.236;2023-05-17T02:55:47;24.23;;;5.23;;
13520;SDS011;6832;51.186;3.236;2023-05-17T02:58:19;18.60;;;5.63;;
13520;SDS011;6832;51.186;3.236;2023-05-17T03:00:47;19.43;;;5.20;;
13520;SDS011;6832;51.186;3.236;2023-05-17T03:03:25;21.47;;;5.30;;
13520;SDS011;6832;51.186;3.236;2023-05-17T03:05:53;19.90;;;5.33;;
13520;SDS011;6832;51.186;3.236;2023-05-17T03:08:20;22.20;;;5.40;;
13520;SDS011;6832;51.186;3.236;2023-05-17T03:10:47;23.70;;;5.63;;
13520;SDS011;6832;51.186;3.236;2023-05-17T03:13:15;17.90;;;4.90;;
13520;SDS011;6832;51.186;3.236;2023-05-17T03:15:42;46.47;;;7.03;;
13520;SDS011;6832;51.186;3.236;2023-05-17T03:18:13;14.60;;;4.93;;
13520;SDS011;6832;51.186;3.236;2023-05-17T03:20:41;23.27;;;5.63;;
13520;SDS011;6832;51.186;3.236;2023-05-17T03:23:08;37.40;;;6.40;;
13520;SDS011;6832;51.186;3.236;2023-05-17T03:25:35;24.13;;;5.77;;
13520;SDS011;6832;51.186;3.236;2023-05-17T03:28:03;12.27;;;4.03;;
13520;SDS011;6832;51.186;3.236;2023-05-17T03:30:33;17.33;;;5.13;;
13520;SDS011;6832;51.186;3.236;2023-05-17T03:33:00;17.30;;;4.97;;
13520;SDS011;6832;51.186;3.236;2023-05-17T03:35:27;16.10;;;4.70;;
13520;SDS011;6832;51.186;3.236;2023-05-17T03:37:55;24.77;;;5.60;;
13520;SDS011;6832;51.186;3.236;2023-05-17T03:40:23;21.97;;;5.10;;
13520;SDS011;6832;51.186;3.236;2023-05-17T03:42:51;21.83;;;5.20;;
13520;SDS011;6832;51.186;3.236;2023-05-17T03:45:18;26.97;;;6.00;;
13520;SDS011;6832;51.186;3.236;2023-05-17T03:47:46;21.73;;;5.43;;
13520;SDS011;6832;51.186;3.236;2023-05-17T03:52:44;27.87;;;5.40;;
13520;SDS011;6832;51.186;3.236;2023-05-17T03:55:14;14.53;;;5.00;;
13520;SDS011;6832;51.186;3.236;2023-05-17T03:57:42;36.90;;;6.67;;
13520;SDS011;6832;51.186;3.236;2023-05-17T04:00:12;15.40;;;4.70;;
13520;SDS011;6832;51.186;3.236;2023-05-17T04:02:51;15.10;;;5.03;;
13520;SDS011;6832;51.186;3.236;2023-05-17T04:05:18;33.97;;;6.00;;
13520;SDS011;6832;51.186;3.236;2023-05-17T04:07:48;33.80;;;6.57;;
13520;SDS011;6832;51.186;3.236;2023-05-17T04:10:16;16.70;;;4.40;;
13520;SDS011;6832;51.186;3.236;2023-05-17T04:12:43;20.53;;;5.50;;
13520;SDS011;6832;51.186;3.236;2023-05-17T04:15:11;14.77;;;4.67;;
13520;SDS011;6832;51.186;3.236;2023-05-17T04:17:45;13.63;;;4.50;;
13520;SDS011;6832;51.186;3.236;2023-05-17T04:20:17;10.47;;;4.47;;
13520;SDS011;6832;51.186;3.236;2023-05-17T04:25:17;12.30;;;4.77;;
13520;SDS011;6832;51.186;3.236;2023-05-17T04:27:45;20.87;;;5.13;;
13520;SDS011;6832;51.186;3.236;2023-05-17T04:30:14;17.13;;;5.40;;
13520;SDS011;6832;51.186;3.236;2023-05-17T04:32:47;15.70;;;4.90;;
13520;SDS011;6832;51.186;3.236;2023-05-17T04:35:14;23.23;;;5.43;;
13520;SDS011;6832;51.186;3.236;2023-05-17T04:37:41;20.77;;;5.37;;
13520;SDS011;6832;51.186;3.236;2023-05-17T04:40:09;20.27;;;5.87;;
13520;SDS011;6832;51.186;3.236;2023-05-17T04:42:38;18.87;;;5.50;;
13520;SDS011;6832;51.186;3.236;2023-05-17T04:45:07;19.93;;;5.37;;
13520;SDS011;6832;51.186;3.236;2023-05-17T04:47:34;27.33;;;5.87;;
13520;SDS011;6832;51.186;3.236;2023-05-17T04:50:01;30.50;;;6.00;;
13520;SDS011;6832;51.186;3.236;2023-05-17T04:52:29;26.90;;;5.90;;
13520;SDS011;6832;51.186;3.236;2023-05-17T04:54:57;34.07;;;6.20;;
13520;SDS011;6832;51.186;3.236;2023-05-17T04:57:24;30.77;;;6.33;;
13520;SDS011;6832;51.186;3.236;2023-05-17T04:59:53;30.90;;;6.27;;
13520;SDS011;6832;51.186;3.236;2023-05-17T05:02:20;24.93;;;5.87;;
13520;SDS011;6832;51.186;3.236;2023-05-17T05:04:49;25.27;;;5.67;;
13520;SDS011;6832;51.186;3.236;2023-05-17T05:07:16;33.07;;;6.40;;
13520;SDS011;6832;51.186;3.236;2023-05-17T05:12:13;27.50;;;5.90;;
13520;SDS011;6832;51.186;3.236;2023-05-17T05:14:40;28.43;;;5.77;;
13520;SDS011;6832;51.186;3.236;2023-05-17T05:17:09;36.93;;;6.93;;
13520;SDS011;6832;51.186;3.236;2023-05-17T05:19:36;24.93;;;6.03;;
13520;SDS011;6832;51.186;3.236;2023-05-17T05:22:05;42.17;;;7.50;;
13520;SDS011;6832;51.186;3.236;2023-05-17T05:24:32;20.27;;;5.67;;
13520;SDS011;6832;51.186;3.236;2023-05-17T05:27:00;28.10;;;5.77;;
13520;SDS011;6832;51.186;3.236;2023-05-17T05:29:33;22.87;;;5.67;;
13520;SDS011;6832;51.186;3.236;2023-05-17T05:32:08;32.53;;;6.37;;
13520;SDS011;6832;51.186;3.236;2023-05-17T05:34:36;39.23;;;7.17;;
13520;SDS011;6832;51.186;3.236;2023-05-17T05:37:04;68.43;;;9.23;;
13520;SDS011;6832;51.186;3.236;2023-05-17T05:39:31;25.57;;;5.57;;
13520;SDS011;6832;51.186;3.236;2023-05-17T05:41:58;32.27;;;6.13;;
13520;SDS011;6832;51.186;3.236;2023-05-17T05:44:28;30.90;;;6.37;;
13520;SDS011;6832;51.186;3.236;2023-05-17T05:46:58;39.47;;;6.33;;
13520;SDS011;6832;51.186;3.236;2023-05-17T05:49:27;26.87;;;5.57;;
13520;SDS011;6832;51.186;3.236;2023-05-17T05:51:54;32.47;;;6.80;;
13520;SDS011;6832;51.186;3.236;2023-05-17T05:54:22;35.20;;;7.37;;
13520;SDS011;6832;51.186;3.236;2023-05-17T05:56:49;25.40;;;5.50;;
13520;SDS011;6832;51.186;3.236;2023-05-17T05:59:16;30.30;;;5.90;;
13520;SDS011;6832;51.186;3.236;2023-05-17T06:01:44;28.67;;;5.87;;
13520;SDS011;6832;51.186;3.236;2023-05-17T06:04:12;24.07;;;5.47;;
13520;SDS011;6832;51.186;3.236;2023-05-17T06:06:41;23.70;;;5.87;;
13520;SDS011;6832;51.186;3.236;2023-05-17T06:09:08;32.33;;;6.67;;
13520;SDS011;6832;51.186;3.236;2023-05-17T06:11:36;20.53;;;5.37;;
13520;SDS011;6832;51.186;3.236;2023-05-17T06:14:04;21.87;;;5.50;;
13520;SDS011;6832;51.186;3.236;2023-05-17T06:16:30;27.13;;;5.83;;
13520;SDS011;6832;51.186;3.236;2023-05-17T06:18:58;23.93;;;6.07;;
13520;SDS011;6832;51.186;3.236;2023-05-17T06:21:25;64.93;;;9.07;;
13520;SDS011;6832;51.186;3.236;2023-05-17T06:23:55;25.83;;;5.37;;
13520;SDS011;6832;51.186;3.236;2023-05-17T06:26:22;35.57;;;6.63;;
13520;SDS011;6832;51.186;3.236;2023-05-17T06:28:50;27.47;;;6.20;;
13520;SDS011;6832;51.186;3.236;2023-05-17T06:31:18;38.20;;;6.93;;
13520;SDS011;6832;51.186;3.236;2023-05-17T06:33:45;56.33;;;8.53;;
13520;SDS011;6832;51.186;3.236;2023-05-17T06:36:12;41.87;;;7.20;;
13520;SDS011;6832;51.186;3.236;2023-05-17T06:38:39;34.60;;;6.63;;
13520;SDS011;6832;51.186;3.236;2023-05-17T06:41:07;30.23;;;6.20;;
13520;SDS011;6832;51.186;3.236;2023-05-17T06:43:34;89.57;;;10.57;;
13520;SDS011;6832;51.186;3.236;2023-05-17T06:46:01;56.03;;;8.37;;
13520;SDS011;6832;51.186;3.236;2023-05-17T06:48:29;43.53;;;7.47;;
13520;SDS011;6832;51.186;3.236;2023-05-17T06:50:56;32.27;;;6.77;;
13520;SDS011;6832;51.186;3.236;2023-05-17T06:53:23;37.73;;;6.87;;
13520;SDS011;6832;51.186;3.236;2023-05-17T06:55:51;23.30;;;5.77;;
13520;SDS011;6832;51.186;3.236;2023-05-17T06:58:19;24.00;;;5.83;;
13520;SDS011;6832;51.186;3.236;2023-05-17T07:00:46;49.53;;;7.83;;
13520;SDS011;6832;51.186;3.236;2023-05-17T07:03:16;31.93;;;6.60;;
13520;SDS011;6832;51.186;3.236;2023-05-17T07:05:43;33.90;;;6.50;;
13520;SDS011;6832;51.186;3.236;2023-05-17T07:08:10;36.30;;;6.63;;
13520;SDS011;6832;51.186;3.236;2023-05-17T07:10:39;46.23;;;7.40;;
13520;SDS011;6832;51.186;3.236;2023-05-17T07:13:06;58.53;;;8.53;;
13520;SDS011;6832;51.186;3.236;2023-05-17T07:15:34;41.63;;;6.80;;
13520;SDS011;6832;51.186;3.236;2023-05-17T07:18:01;40.50;;;7.53;;
13520;SDS011;6832;51.186;3.236;2023-05-17T07:20:28;41.97;;;7.07;;
13520;SDS011;6832;51.186;3.236;2023-05-17T07:22:57;36.73;;;6.87;;
13520;SDS011;6832;51.186;3.236;2023-05-17T07:25:25;50.90;;;8.13;;
13520;SDS011;6832;51.186;3.236;2023-05-17T07:27:52;28.33;;;6.37;;
13520;SDS011;6832;51.186;3.236;2023-05-17T07:30:20;49.13;;;8.10;;
13520;SDS011;6832;51.186;3.236;2023-05-17T07:32:48;61.90;;;8.50;;
13520;SDS011;6832;51.186;3.236;2023-05-17T07:35:16;36.33;;;6.63;;
13520;SDS011;6832;51.186;3.236;2023-05-17T07:37:45;35.53;;;7.03;;
13520;SDS011;6832;51.186;3.236;2023-05-17T07:40:13;41.70;;;7.50;;
13520;SDS011;6832;51.186;3.236;2023-05-17T07:42:40;40.57;;;7.17;;
13520;SDS011;6832;51.186;3.236;2023-05-17T07:45:08;31.77;;;7.00;;
13520;SDS011;6832;51.186;3.236;2023-05-17T07:47:35;50.10;;;7.93;;
13520;SDS011;6832;51.186;3.236;2023-05-17T07:50:05;38.93;;;6.73;;
13520;SDS011;6832;51.186;3.236;2023-05-17T07:52:33;41.30;;;6.73;;
13520;SDS011;6832;51.186;3.236;2023-05-17T07:55:00;37.97;;;6.70;;
13520;SDS011;6832;51.186;3.236;2023-05-17T07:57:28;49.47;;;7.73;;
13520;SDS011;6832;51.186;3.236;2023-05-17T07:59:54;34.60;;;6.33;;
13520;SDS011;6832;51.186;3.236;2023-05-17T08:02:21;32.40;;;6.80;;
13520;SDS011;6832;51.186;3.236;2023-05-17T08:04:48;37.00;;;6.97;;
13520;SDS011;6832;51.186;3.236;2023-05-17T08:07:17;46.63;;;7.77;;
13520;SDS011;6832;51.186;3.236;2023-05-17T08:09:45;66.83;;;9.10;;
13520;SDS011;6832;51.186;3.236;2023-05-17T08:12:12;65.53;;;9.60;;
13520;SDS011;6832;51.186;3.236;2023-05-17T08:14:39;38.43;;;7.40;;
13520;SDS011;6832;51.186;3.236;2023-05-17T08:17:12;31.37;;;6.80;;
13520;SDS011;6832;51.186;3.236;2023-05-17T08:19:40;40.13;;;6.90;;
13520;SDS011;6832;51.186;3.236;2023-05-17T08:22:07;38.23;;;7.17;;
13520;SDS011;6832;51.186;3.236;2023-05-17T08:24:37;73.67;;;10.40;;
13520;SDS011;6832;51.186;3.236;2023-05-17T08:27:04;72.83;;;10.33;;
13520;SDS011;6832;51.186;3.236;2023-05-17T08:29:31;38.20;;;7.60;;
13520;SDS011;6832;51.186;3.236;2023-05-17T08:31:58;85.00;;;11.47;;
13520;SDS011;6832;51.186;3.236;2023-05-17T08:34:25;50.73;;;8.37;;
13520;SDS011;6832;51.186;3.236;2023-05-17T08:36:52;32.13;;;7.23;;
13520;SDS011;6832;51.186;3.236;2023-05-17T08:39:19;36.10;;;7.50;;
13520;SDS011;6832;51.186;3.236;2023-05-17T08:41:47;46.73;;;8.27;;
13520;SDS011;6832;51.186;3.236;2023-05-17T08:44:16;52.80;;;8.80;;
13520;SDS011;6832;51.186;3.236;2023-05-17T08:46:46;47.73;;;8.07;;
13520;SDS011;6832;51.186;3.236;2023-05-17T08:49:17;55.13;;;8.40;;
13520;SDS011;6832;51.186;3.236;2023-05-17T08:51:51;84.73;;;11.23;;
13520;SDS011;6832;51.186;3.236;2023-05-17T08:54:19;44.40;;;7.87;;
13520;SDS011;6832;51.186;3.236;2023-05-17T08:56:48;60.50;;;9.30;;
13520;SDS011;6832;51.186;3.236;2023-05-17T08:59:19;34.40;;;7.40;;
13520;SDS011;6832;51.186;3.236;2023-05-17T09:01:49;45.40;;;8.03;;
13520;SDS011;6832;51.186;3.236;2023-05-17T09:04:19;33.43;;;6.07;;
13520;SDS011;6832;51.186;3.236;2023-05-17T09:06:48;31.53;;;6.70;;
13520;SDS011;6832;51.186;3.236;2023-05-17T09:09:15;42.73;;;7.40;;
13520;SDS011;6832;51.186;3.236;2023-05-17T09:11:44;37.57;;;7.10;;
13520;SDS011;6832;51.186;3.236;2023-05-17T09:14:14;29.83;;;6.33;;
13520;SDS011;6832;51.186;3.236;2023-05-17T09:16:50;26.57;;;6.13;;
13520;SDS011;6832;51.186;3.236;2023-05-17T09:19:22;25.40;;;6.73;;
13520;SDS011;6832;51.186;3.236;2023-05-17T09:21:50;39.30;;;7.07;;
13520;SDS011;6832;51.186;3.236;2023-05-17T09:24:26;42.40;;;7.70;;
13520;SDS011;6832;51.186;3.236;2023-05-17T09:26:55;55.80;;;8.40;;
13520;SDS011;6832;51.186;3.236;2023-05-17T09:29:30;42.87;;;7.80;;
13520;SDS011;6832;51.186;3.236;2023-05-17T09:32:10;32.77;;;6.73;;
13520;SDS011;6832;51.186;3.236;2023-05-17T09:34:39;39.43;;;7.27;;
13520;SDS011;6832;51.186;3.236;2023-05-17T09:37:11;60.83;;;8.77;;
13520;SDS011;6832;51.186;3.236;2023-05-17T09:39:39;42.83;;;7.27;;
13520;SDS011;6832;51.186;3.236;2023-05-17T09:42:07;47.90;;;7.43;;
13520;SDS011;6832;51.186;3.236;2023-05-17T09:44:50;37.67;;;7.00;;
13520;SDS011;6832;51.186;3.236;2023-05-17T09:47:25;38.10;;;7.37;;
13520;SDS011;6832;51.186;3.236;2023-05-17T09:50:00;33.37;;;6.00;;
13520;SDS011;6832;51.186;3.236;2023-05-17T09:52:28;35.30;;;6.63;;
13520;SDS011;6832;51.186;3.236;2023-05-17T09:54:58;49.90;;;7.80;;
13520;SDS011;6832;51.186;3.236;2023-05-17T10:00:04;30.10;;;5.73;;
13520;SDS011;6832;51.186;3.236;2023-05-17T10:02:36;60.60;;;8.73;;
13520;SDS011;6832;51.186;3.236;2023-05-17T10:05:07;47.07;;;7.67;;
13520;SDS011;6832;51.186;3.236;2023-05-17T10:07:36;54.50;;;8.03;;
13520;SDS011;6832;51.186;3.236;2023-05-17T10:10:12;39.87;;;6.87;;
13520;SDS011;6832;51.186;3.236;2023-05-17T10:12:42;55.63;;;8.17;;
13520;SDS011;6832;51.186;3.236;2023-05-17T10:15:12;47.33;;;7.27;;
13520;SDS011;6832;51.186;3.236;2023-05-17T10:17:42;31.77;;;5.87;;
13520;SDS011;6832;51.186;3.236;2023-05-17T10:20:10;77.77;;;10.40;;
13520;SDS011;6832;51.186;3.236;2023-05-17T10:22:39;68.17;;;10.17;;
13520;SDS011;6832;51.186;3.236;2023-05-17T10:25:11;50.30;;;7.60;;
13520;SDS011;6832;51.186;3.236;2023-05-17T10:27:44;44.50;;;7.40;;
13520;SDS011;6832;51.186;3.236;2023-05-17T10:30:15;43.67;;;7.10;;
13520;SDS011;6832;51.186;3.236;2023-05-17T10:32:45;34.17;;;6.47;;
13520;SDS011;6832;51.186;3.236;2023-05-17T10:35:14;52.77;;;8.07;;
13520;SDS011;6832;51.186;3.236;2023-05-17T10:37:43;35.10;;;6.47;;
13520;SDS011;6832;51.186;3.236;2023-05-17T10:40:29;36.93;;;6.80;;
13520;SDS011;6832;51.186;3.236;2023-05-17T10:53:44;43.53;;;6.90;;
13520;SDS011;6832;51.186;3.236;2023-05-17T10:56:29;45.47;;;7.80;;
13520;SDS011;6832;51.186;3.236;2023-05-17T10:59:19;27.90;;;5.63;;
13520;SDS011;6832;51.186;3.236;2023-05-17T11:01:51;37.07;;;6.50;;
13520;SDS011;6832;51.186;3.236;2023-05-17T11:04:20;57.73;;;8.47;;
13520;SDS011;6832;51.186;3.236;2023-05-17T11:06:51;39.53;;;6.47;;
13520;SDS011;6832;51.186;3.236;2023-05-17T11:09:48;32.23;;;6.07;;
13520;SDS011;6832;51.186;3.236;2023-05-17T11:12:26;33.97;;;6.33;;
13520;SDS011;6832;51.186;3.236;2023-05-17T11:14:55;38.70;;;6.43;;
13520;SDS011;6832;51.186;3.236;2023-05-17T11:17:23;36.23;;;6.87;;
13520;SDS011;6832;51.186;3.236;2023-05-17T11:19:54;28.63;;;5.90;;
13520;SDS011;6832;51.186;3.236;2023-05-17T11:22:33;30.37;;;6.07;;
13520;SDS011;6832;51.186;3.236;2023-05-17T11:25:05;32.63;;;5.97;;
13520;SDS011;6832;51.186;3.236;2023-05-17T11:27:37;36.57;;;6.17;;
13520;SDS011;6832;51.186;3.236;2023-05-17T11:30:11;40.97;;;6.87;;
13520;SDS011;6832;51.186;3.236;2023-05-17T11:32:47;36.60;;;6.50;;
13520;SDS011;6832;51.186;3.236;2023-05-17T11:35:16;42.90;;;6.80;;
13520;SDS011;6832;51.186;3.236;2023-05-17T11:37:45;37.37;;;6.17;;
13520;SDS011;6832;51.186;3.236;2023-05-17T11:40:16;31.60;;;6.00;;
13520;SDS011;6832;51.186;3.236;2023-05-17T11:45:42;44.53;;;7.17;;
13520;SDS011;6832;51.186;3.236;2023-05-17T11:48:14;40.50;;;6.40;;
13520;SDS011;6832;51.186;3.236;2023-05-17T11:50:44;42.73;;;6.83;;
13520;SDS011;6832;51.186;3.236;2023-05-17T11:53:13;36.60;;;6.63;;
13520;SDS011;6832;51.186;3.236;2023-05-17T11:55:42;29.00;;;6.30;;
13520;SDS011;6832;51.186;3.236;2023-05-17T11:58:12;35.73;;;6.70;;
13520;SDS011;6832;51.186;3.236;2023-05-17T12:00:41;33.63;;;6.83;;
13520;SDS011;6832;51.186;3.236;2023-05-17T12:03:21;28.53;;;6.70;;
13520;SDS011;6832;51.186;3.236;2023-05-17T12:06:08;35.87;;;7.23;;
13520;SDS011;6832;51.186;3.236;2023-05-17T12:08:49;34.60;;;7.47;;
13520;SDS011;6832;51.186;3.236;2023-05-17T12:11:17;47.67;;;8.97;;
13520;SDS011;6832;51.186;3.236;2023-05-17T12:13:50;36.00;;;7.80;;
13520;SDS011;6832;51.186;3.236;2023-05-17T12:16:20;24.97;;;7.13;;
13520;SDS011;6832;51.186;3.236;2023-05-17T12:18:52;36.93;;;8.00;;
13520;SDS011;6832;51.186;3.236;2023-05-17T12:21:35;30.33;;;7.63;;
13520;SDS011;6832;51.186;3.236;2023-05-17T12:26:41;27.43;;;7.97;;
13520;SDS011;6832;51.186;3.236;2023-05-17T12:29:13;20.67;;;7.67;;
13520;SDS011;6832;51.186;3.236;2023-05-17T12:31:50;23.67;;;7.57;;
13520;SDS011;6832;51.186;3.236;2023-05-17T12:34:19;19.57;;;7.37;;
13520;SDS011;6832;51.186;3.236;2023-05-17T12:36:48;36.17;;;7.50;;
13520;SDS011;6832;51.186;3.236;2023-05-17T12:39:21;26.93;;;7.30;;
13520;SDS011;6832;51.186;3.236;2023-05-17T12:41:50;31.67;;;7.67;;
13520;SDS011;6832;51.186;3.236;2023-05-17T12:44:20;29.77;;;7.57;;
13520;SDS011;6832;51.186;3.236;2023-05-17T12:46:48;24.63;;;7.10;;
13520;SDS011;6832;51.186;3.236;2023-05-17T12:49:26;23.57;;;6.90;;
13520;SDS011;6832;51.186;3.236;2023-05-17T12:51:53;23.07;;;6.80;;
13520;SDS011;6832;51.186;3.236;2023-05-17T12:54:31;20.67;;;6.23;;
13520;SDS011;6832;51.186;3.236;2023-05-17T12:57:07;20.37;;;6.47;;
13520;SDS011;6832;51.186;3.236;2023-05-17T12:59:47;16.80;;;5.57;;
13520;SDS011;6832;51.186;3.236;2023-05-17T13:02:18;30.77;;;6.93;;
13520;SDS011;6832;51.186;3.236;2023-05-17T13:04:46;31.30;;;7.27;;
13520;SDS011;6832;51.186;3.236;2023-05-17T13:07:20;25.93;;;6.83;;
13520;SDS011;6832;51.186;3.236;2023-05-17T13:09:51;32.03;;;7.23;;
13520;SDS011;6832;51.186;3.236;2023-05-17T13:12:21;36.50;;;7.67;;
13520;SDS011;6832;51.186;3.236;2023-05-17T13:14:50;28.60;;;6.23;;
13520;SDS011;6832;51.186;3.236;2023-05-17T13:17:21;24.67;;;6.07;;
13520;SDS011;6832;51.186;3.236;2023-05-17T13:19:50;34.77;;;7.73;;
13520;SDS011;6832;51.186;3.236;2023-05-17T13:22:18;35.63;;;7.33;;
13520;SDS011;6832;51.186;3.236;2023-05-17T13:24:45;20.17;;;5.43;;
13520;SDS011;6832;51.186;3.236;2023-05-17T13:27:14;25.90;;;6.57;;
13520;SDS011;6832;51.186;3.236;2023-05-17T13:29:41;26.43;;;6.63;;
13520;SDS011;6832;51.186;3.236;2023-05-17T13:32:09;26.53;;;6.20;;
13520;SDS011;6832;51.186;3.236;2023-05-17T13:34:38;41.37;;;7.83;;
13520;SDS011;6832;51.186;3.236;2023-05-17T13:37:09;28.43;;;6.07;;
13520;SDS011;6832;51.186;3.236;2023-05-17T13:39:40;24.70;;;5.67;;
13520;SDS011;6832;51.186;3.236;2023-05-17T13:42:07;40.00;;;7.17;;
13520;SDS011;6832;51.186;3.236;2023-05-17T13:44:39;40.90;;;7.60;;
13520;SDS011;6832;51.186;3.236;2023-05-17T13:47:07;35.07;;;7.53;;
13520;SDS011;6832;51.186;3.236;2023-05-17T13:49:34;32.37;;;8.03;;
13520;SDS011;6832;51.186;3.236;2023-05-17T13:52:01;33.03;;;7.73;;
13520;SDS011;6832;51.186;3.236;2023-05-17T13:54:33;52.90;;;9.30;;
13520;SDS011;6832;51.186;3.236;2023-05-17T13:57:00;37.73;;;8.70;;
13520;SDS011;6832;51.186;3.236;2023-05-17T13:59:27;33.10;;;8.17;;
13520;SDS011;6832;51.186;3.236;2023-05-17T14:01:55;33.57;;;7.50;;
13520;SDS011;6832;51.186;3.236;2023-05-17T14:04:22;28.40;;;7.50;;
13520;SDS011;6832;51.186;3.236;2023-05-17T14:06:50;27.37;;;7.13;;
13520;SDS011;6832;51.186;3.236;2023-05-17T14:09:19;25.37;;;7.13;;
13520;SDS011;6832;51.186;3.236;2023-05-17T14:11:46;37.20;;;7.63;;
13520;SDS011;6832;51.186;3.236;2023-05-17T14:14:13;31.43;;;7.03;;
13520;SDS011;6832;51.186;3.236;2023-05-17T14:16:40;27.43;;;6.33;;
13520;SDS011;6832;51.186;3.236;2023-05-17T14:19:08;33.20;;;7.37;;
13520;SDS011;6832;51.186;3.236;2023-05-17T14:21:35;37.10;;;7.13;;
13520;SDS011;6832;51.186;3.236;2023-05-17T14:24:02;25.23;;;6.17;;
13520;SDS011;6832;51.186;3.236;2023-05-17T14:26:29;30.60;;;6.77;;
13520;SDS011;6832;51.186;3.236;2023-05-17T14:28:56;41.90;;;7.87;;
13520;SDS011;6832;51.186;3.236;2023-05-17T14:31:23;38.83;;;7.13;;
13520;SDS011;6832;51.186;3.236;2023-05-17T14:33:52;29.73;;;6.90;;
13520;SDS011;6832;51.186;3.236;2023-05-17T14:36:21;35.40;;;6.67;;
13520;SDS011;6832;51.186;3.236;2023-05-17T14:38:48;30.80;;;6.50;;
13520;SDS011;6832;51.186;3.236;2023-05-17T14:41:15;20.07;;;5.23;;
13520;SDS011;6832;51.186;3.236;2023-05-17T14:43:42;61.33;;;9.27;;
13520;SDS011;6832;51.186;3.236;2023-05-17T14:46:09;32.77;;;7.83;;
13520;SDS011;6832;51.186;3.236;2023-05-17T14:48:37;37.20;;;7.53;;
13520;SDS011;6832;51.186;3.236;2023-05-17T14:51:04;26.00;;;6.60;;
13520;SDS011;6832;51.186;3.236;2023-05-17T14:53:33;24.27;;;7.23;;
13520;SDS011;6832;51.186;3.236;2023-05-17T14:56:00;27.93;;;7.10;;
13520;SDS011;6832;51.186;3.236;2023-05-17T14:58:27;29.50;;;7.40;;
13520;SDS011;6832;51.186;3.236;2023-05-17T15:00:55;31.73;;;7.73;;
13520;SDS011;6832;51.186;3.236;2023-05-17T15:03:23;23.37;;;7.27;;
13520;SDS011;6832;51.186;3.236;2023-05-17T15:05:54;54.10;;;9.93;;
13520;SDS011;6832;51.186;3.236;2023-05-17T15:08:22;41.47;;;8.63;;
13520;SDS011;6832;51.186;3.236;2023-05-17T15:10:50;55.77;;;9.43;;
13520;SDS011;6832;51.186;3.236;2023-05-17T15:13:18;30.63;;;7.33;;
13520;SDS011;6832;51.186;3.236;2023-05-17T15:15:45;28.20;;;7.30;;
13520;SDS011;6832;51.186;3.236;2023-05-17T15:18:12;26.77;;;6.90;;
13520;SDS011;6832;51.186;3.236;2023-05-17T15:20:39;42.50;;;8.80;;
13520;SDS011;6832;51.186;3.236;2023-05-17T15:23:06;24.80;;;7.03;;
13520;SDS011;6832;51.186;3.236;2023-05-17T15:25:33;33.60;;;7.40;;
13520;SDS011;6832;51.186;3.236;2023-05-17T15:28:02;32.03;;;7.43;;
13520;SDS011;6832;51.186;3.236;2023-05-17T15:30:29;34.53;;;7.47;;